Terminal Aerodrome Forecast
Issued by NWS

Home | Current Version | Previous Version | Text Only | Print | Product List | Glossary Off
Versions: 1 2 3 4 5 6 7 8 9 10 11 12 13 14 15

000
FTUS43 KMPX 171720
TAFRNH
TAF
KRNH 171720Z 1718/1818 12008KT P6SM SCT090
     FM172100 11009KT P6SM VCSH SCT070 BKN250
     FM180100 10007KT P6SM FEW250
     FM181500 13008KT P6SM SKC=

USA.gov is the U.S. government's official web portal to all federal, state and local government web resources and services.